createdAt,value
2019-05-02T00:03:04.525Z,15.30
2019-05-02T00:08:08.048Z,14.90
2019-05-02T00:13:13.110Z,15.20
2019-05-02T00:18:17.934Z,14.90
2019-05-02T00:23:22.925Z,15.00
2019-05-02T00:28:28.082Z,14.90
2019-05-02T00:33:34.505Z,14.80
2019-05-02T00:38:39.870Z,14.90
2019-05-02T00:43:43.955Z,14.90
2019-05-02T00:48:58.950Z,14.90
2019-05-02T00:53:59.606Z,14.70
2019-05-02T00:59:07.432Z,15.00
2019-05-02T01:04:27.429Z,14.90
2019-05-02T01:09:31.710Z,14.90
2019-05-02T01:14:35.939Z,14.90
2019-05-02T01:19:39.831Z,14.80
2019-05-02T01:24:44.007Z,14.60
2019-05-02T01:30:13.597Z,14.80
2019-05-02T01:35:26.933Z,14.70
2019-05-02T01:40:29.558Z,14.80
2019-05-02T01:45:34.148Z,14.90
2019-05-02T01:50:38.363Z,14.90
2019-05-02T01:55:42.644Z,14.70
2019-05-02T02:00:46.931Z,14.30
2019-05-02T02:05:50.985Z,14.30
2019-05-02T02:10:56.462Z,14.70
2019-05-02T02:16:04.335Z,14.40
2019-05-02T02:21:20.162Z,14.70
2019-05-02T02:26:25.469Z,14.70
2019-05-02T02:31:29.546Z,14.20
2019-05-02T02:36:34.883Z,14.40
2019-05-02T02:41:39.525Z,14.20
2019-05-02T02:46:45.588Z,14.20
2019-05-02T02:51:49.656Z,14.40
2019-05-02T02:56:53.967Z,14.50
2019-05-02T03:02:08.709Z,14.20
2019-05-02T03:07:04.392Z,14.30
2019-05-02T03:12:26.163Z,14.10
2019-05-02T03:17:30.785Z,14.30
2019-05-02T03:22:41.868Z,14.00
2019-05-02T03:27:41.644Z,14.10
2019-05-02T03:33:02.702Z,14.50
2019-05-02T03:37:53.226Z,14.10
2019-05-02T03:42:58.047Z,14.00
2019-05-02T03:48:02.752Z,14.30
2019-05-02T03:53:06.905Z,14.30
2019-05-02T03:58:14.685Z,14.00
2019-05-02T04:03:18.860Z,14.30
2019-05-02T04:08:24.700Z,14.10
2019-05-02T04:13:30.186Z,14.10
2019-05-02T04:18:35.022Z,14.10
2019-05-02T04:23:40.020Z,14.00
2019-05-02T04:28:45.515Z,14.20
2019-05-02T04:33:50.813Z,14.00
2019-05-02T04:38:55.119Z,14.00
2019-05-02T04:44:01.664Z,14.30
2019-05-02T04:49:05.423Z,14.10
2019-05-02T04:54:09.568Z,14.00
2019-05-02T04:59:19.864Z,14.10
2019-05-02T05:04:20.131Z,14.00
2019-05-02T05:09:24.295Z,14.00
2019-05-02T05:14:31.364Z,14.10
2019-05-02T05:19:34.516Z,14.10
2019-05-02T05:24:44.102Z,14.00
2019-05-02T05:29:48.599Z,14.00
2019-05-02T05:34:52.758Z,14.30
2019-05-02T05:39:58.037Z,14.00
2019-05-02T05:45:03.749Z,14.00
2019-05-02T05:50:08.434Z,14.00
2019-05-02T05:55:17.279Z,13.90
2019-05-02T06:00:23.016Z,14.10
2019-05-02T06:05:27.144Z,14.20
2019-05-02T06:10:31.097Z,14.10
2019-05-02T06:15:39.035Z,14.10
2019-05-02T06:20:40.982Z,14.00
2019-05-02T06:25:45.213Z,13.80
2019-05-02T06:30:49.555Z,14.00
2019-05-02T06:36:01.098Z,14.10
2019-05-02T06:40:59.355Z,14.20
2019-05-02T06:46:15.510Z,14.00
2019-05-02T06:51:10.945Z,14.20
2019-05-02T06:56:15.535Z,14.10
2019-05-02T07:01:21.122Z,14.10
2019-05-02T07:06:26.008Z,14.00
2019-05-02T07:11:33.298Z,14.10
2019-05-02T07:16:44.475Z,14.10
2019-05-02T07:21:48.449Z,14.00
2019-05-02T07:26:56.881Z,14.00
2019-05-02T07:31:58.679Z,14.00
2019-05-02T07:37:02.711Z,14.20
2019-05-02T07:42:07.903Z,14.40
2019-05-02T07:47:12.199Z,13.90
2019-05-02T07:52:16.227Z,14.20
2019-05-02T07:57:20.467Z,14.30
2019-05-02T08:02:25.085Z,13.90
2019-05-02T08:07:34.210Z,14.20
2019-05-02T08:12:36.306Z,14.20
2019-05-02T08:17:40.571Z,14.30
2019-05-02T08:22:48.996Z,14.20
2019-05-02T08:27:56.595Z,14.10
2019-05-02T08:33:00.951Z,14.10
2019-05-02T08:38:05.091Z,14.20
2019-05-02T08:43:10.901Z,14.10
2019-05-02T08:48:15.407Z,14.10
2019-05-02T08:53:20.666Z,14.40
2019-05-02T08:58:25.890Z,14.40
2019-05-02T09:03:38.880Z,14.30
2019-05-02T09:08:35.912Z,14.10
2019-05-02T09:13:42.059Z,14.30
2019-05-02T09:18:51.090Z,14.60
2019-05-02T09:23:51.734Z,14.40
2019-05-02T09:28:56.285Z,14.40
2019-05-02T09:34:02.727Z,14.70
2019-05-02T09:39:07.771Z,14.40
2019-05-02T09:44:17.363Z,14.60
2019-05-02T09:49:18.483Z,14.60
2019-05-02T09:54:23.099Z,14.60
2019-05-02T09:59:33.957Z,14.60
2019-05-02T10:04:41.540Z,14.70
2019-05-02T10:09:45.760Z,15.10
2019-05-02T10:14:49.803Z,15.30
2019-05-02T10:19:57.149Z,15.30
2019-05-02T10:25:02.426Z,15.20
2019-05-02T10:30:11.719Z,15.30
2019-05-02T10:35:15.671Z,15.30
2019-05-02T10:40:20.075Z,15.10
2019-05-02T10:45:24.487Z,15.40
2019-05-02T10:50:36.819Z,15.50
2019-05-02T10:55:42.547Z,15.50
2019-05-02T11:00:47.348Z,15.50
2019-05-02T11:05:58.038Z,15.70
2019-05-02T11:11:03.253Z,16.10
2019-05-02T11:16:42.411Z,16.20
2019-05-02T11:21:55.817Z,16.20
2019-05-02T11:26:52.927Z,16.30
2019-05-02T11:31:57.535Z,16.30
2019-05-02T11:37:01.837Z,16.60
2019-05-02T11:42:06.380Z,16.50
2019-05-02T11:47:12.490Z,16.50
2019-05-02T11:52:16.415Z,16.90
2019-05-02T11:57:28.316Z,16.70
2019-05-02T12:02:49.187Z,16.80
2019-05-02T12:07:53.692Z,16.90
2019-05-02T12:12:58.932Z,17.10
2019-05-02T12:18:02.906Z,17.20
2019-05-02T12:23:09.075Z,17.10
2019-05-02T12:28:13.290Z,17.20
2019-05-02T12:33:19.019Z,17.50
2019-05-02T12:38:23.329Z,17.80
2019-05-02T12:43:27.587Z,17.60
2019-05-02T12:48:32.792Z,17.80
2019-05-02T12:53:37.287Z,17.90
2019-05-02T12:58:42.147Z,17.90
2019-05-02T13:03:51.797Z,17.80
2019-05-02T13:08:55.948Z,17.80
2019-05-02T13:14:02.188Z,17.80
2019-05-02T13:19:07.159Z,17.80
2019-05-02T13:24:29.129Z,18.10
2019-05-02T13:29:32.196Z,17.70
2019-05-02T13:34:48.570Z,18.20
2019-05-02T13:40:12.770Z,17.70
2019-05-02T13:45:27.970Z,17.90
2019-05-02T13:50:32.011Z,17.90
2019-05-02T13:55:44.435Z,17.90
2019-05-02T14:00:50.043Z,18.20
2019-05-02T14:05:54.085Z,18.30
2019-05-02T14:11:17.215Z,18.10
2019-05-02T14:16:22.139Z,18.10
2019-05-02T14:21:26.641Z,18.20
2019-05-02T14:26:33.060Z,18.10
2019-05-02T14:31:36.683Z,18.20
2019-05-02T14:36:42.305Z,18.00
2019-05-02T14:41:47.175Z,18.10
2019-05-02T14:46:52.340Z,17.80
2019-05-02T14:51:57.309Z,18.10
2019-05-02T14:57:17.167Z,18.30
2019-05-02T15:02:39.302Z,18.20
2019-05-02T15:07:43.835Z,18.00
2019-05-02T15:12:51.693Z,18.20
2019-05-02T15:17:54.099Z,18.30
2019-05-02T15:22:58.623Z,18.00
2019-05-02T15:28:02.619Z,18.20
2019-05-02T15:33:12.515Z,18.20
2019-05-02T15:38:24.819Z,18.10
2019-05-02T15:43:23.334Z,18.30
2019-05-02T15:48:27.831Z,18.40
2019-05-02T15:53:49.676Z,18.20
2019-05-02T15:58:52.426Z,18.40
2019-05-02T16:03:57.550Z,18.00
2019-05-02T16:09:02.482Z,18.10
2019-05-02T16:14:06.796Z,18.00
2019-05-02T16:19:14.656Z,18.10
2019-05-02T16:24:22.562Z,18.10
2019-05-02T16:29:28.495Z,17.90
2019-05-02T16:34:35.121Z,17.90
2019-05-02T16:39:44.393Z,18.20
2019-05-02T16:44:44.042Z,17.80
2019-05-02T16:49:53.403Z,18.00
2019-05-02T16:54:54.543Z,17.70
2019-05-02T17:00:01.564Z,17.60
2019-05-02T17:05:09.199Z,17.50
2019-05-02T17:10:21.047Z,17.30
2019-05-02T17:15:35.139Z,17.70
2019-05-02T17:20:38.120Z,17.50
2019-05-02T17:25:42.671Z,17.30
2019-05-02T17:30:46.647Z,17.50
2019-05-02T17:35:52.300Z,17.20
2019-05-02T17:40:59.230Z,17.20
2019-05-02T17:46:04.617Z,17.20
2019-05-02T17:51:37.554Z,17.30
2019-05-02T17:56:39.510Z,17.20
2019-05-02T18:01:43.527Z,17.20
2019-05-02T18:06:52.351Z,16.90
2019-05-02T18:11:53.111Z,16.80
2019-05-02T18:16:57.791Z,16.70
2019-05-02T18:22:03.645Z,16.90
2019-05-02T18:27:08.707Z,16.80
2019-05-02T18:32:12.973Z,16.60
2019-05-02T18:37:17.450Z,16.60
2019-05-02T18:42:25.520Z,16.60
2019-05-02T18:47:28.382Z,16.50
2019-05-02T18:52:38.098Z,16.50
2019-05-02T18:57:38.652Z,16.50
2019-05-02T19:02:43.211Z,16.60
2019-05-02T19:07:52.101Z,16.60
2019-05-02T19:12:56.011Z,16.40
2019-05-02T19:17:59.911Z,16.10
2019-05-02T19:23:03.999Z,16.00
2019-05-02T19:28:14.819Z,16.40
2019-05-02T19:33:21.115Z,16.30
2019-05-02T19:38:26.270Z,16.30
2019-05-02T19:43:32.401Z,15.90
2019-05-02T19:48:40.342Z,16.40
2019-05-02T19:53:43.255Z,16.10
2019-05-02T19:58:47.484Z,15.90
2019-05-02T20:03:52.027Z,15.90
2019-05-02T20:08:59.167Z,15.80
2019-05-02T20:14:09.075Z,15.90
2019-05-02T20:19:08.422Z,15.90
2019-05-02T20:24:17.372Z,16.00
2019-05-02T20:29:18.477Z,15.90
2019-05-02T20:34:22.474Z,15.90
2019-05-02T20:39:26.735Z,15.80
2019-05-02T20:44:32.087Z,15.70
2019-05-02T20:49:36.332Z,15.80
2019-05-02T20:54:42.681Z,15.80
2019-05-02T20:59:46.515Z,15.90
2019-05-02T21:04:52.163Z,15.80
2019-05-02T21:10:04.726Z,15.60
2019-05-02T21:15:08.988Z,15.50
2019-05-02T21:20:13.365Z,15.80
2019-05-02T21:25:17.851Z,15.40
2019-05-02T21:30:26.454Z,15.70
2019-05-02T21:35:31.907Z,15.40
2019-05-02T21:40:36.079Z,15.90
2019-05-02T21:45:42.106Z,15.70
2019-05-02T21:50:51.417Z,15.40
2019-05-02T21:56:12.167Z,15.40
2019-05-02T22:01:15.987Z,15.30
2019-05-02T22:06:20.030Z,15.30
2019-05-02T22:11:24.328Z,15.60
2019-05-02T22:16:28.370Z,15.30
2019-05-02T22:21:35.101Z,15.20
2019-05-02T22:26:38.627Z,15.30
2019-05-02T22:31:43.192Z,15.40
2019-05-02T22:36:47.827Z,15.20
2019-05-02T22:41:52.671Z,15.30
2019-05-02T22:46:57.547Z,15.20
2019-05-02T22:52:01.864Z,15.30
2019-05-02T22:57:05.919Z,15.20
2019-05-02T23:02:09.967Z,15.10
2019-05-02T23:07:14.361Z,15.00
2019-05-02T23:12:18.791Z,14.80
2019-05-02T23:17:23.286Z,15.00
2019-05-02T23:22:27.395Z,15.10
2019-05-02T23:27:38.859Z,15.20
2019-05-02T23:32:42.868Z,15.20
2019-05-02T23:37:47.031Z,15.00
2019-05-02T23:42:52.428Z,15.10
2019-05-02T23:47:56.713Z,15.00
2019-05-02T23:53:02.379Z,14.90
2019-05-02T23:58:06.723Z,14.90
